createdAt,value
2022-12-08T17:41:42.681Z,986.85
2022-12-08T17:42:43.659Z,986.84
2022-12-08T17:43:43.638Z,986.85
2022-12-08T17:44:43.616Z,986.84
2022-12-08T17:45:43.714Z,986.84
2022-12-08T17:46:49.149Z,986.83
2022-12-08T17:47:43.596Z,986.84
2022-12-08T17:48:43.595Z,986.84
2022-12-08T17:49:43.569Z,986.84
2022-12-08T17:50:43.784Z,986.85
2022-12-08T17:53:42.200Z,986.81
2022-12-08T17:54:43.710Z,986.81
2022-12-08T17:55:43.171Z,986.81
2022-12-08T17:56:43.154Z,986.80
2022-12-08T17:57:43.148Z,986.79
2022-12-08T17:58:43.133Z,986.79
2022-12-08T17:59:43.160Z,986.78
2022-12-08T18:00:43.111Z,986.79
2022-12-08T18:01:43.195Z,986.79
2022-12-08T18:02:43.197Z,986.80
2022-12-08T18:03:43.086Z,986.81
2022-12-08T18:04:43.087Z,986.82
2022-12-08T18:05:43.075Z,986.82
2022-12-08T18:06:43.050Z,986.81
2022-12-08T18:07:43.090Z,986.81
2022-12-08T18:08:43.027Z,986.81
2022-12-08T18:09:43.045Z,986.80
2022-12-08T18:10:43.006Z,986.80
2022-12-08T18:11:43.000Z,986.80
2022-12-08T18:20:20.834Z,986.85
2022-12-08T18:21:23.770Z,986.85
2022-12-08T18:22:21.788Z,986.83
2022-12-08T18:23:21.814Z,986.82
2022-12-08T18:24:21.765Z,986.83
2022-12-08T18:25:21.762Z,986.83
2022-12-08T18:26:21.745Z,986.84
2022-12-08T18:27:21.807Z,986.84
2022-12-08T18:28:22.174Z,986.82
2022-12-08T18:29:22.197Z,986.81
2022-12-08T18:30:21.757Z,986.79
2022-12-08T18:31:21.795Z,986.77
2022-12-08T18:32:21.738Z,986.77
2022-12-08T18:33:22.136Z,986.76
2022-12-08T18:34:22.434Z,986.76
2022-12-08T18:35:21.709Z,986.77
2022-12-08T18:36:21.705Z,986.77
2022-12-08T18:37:21.693Z,986.76
2022-12-08T18:38:21.680Z,986.76
2022-12-08T18:39:21.702Z,986.78
2022-12-08T18:40:21.652Z,986.78
2022-12-08T18:41:21.646Z,986.78
2022-12-08T18:42:21.588Z,986.78
2022-12-08T18:43:21.573Z,986.77
2022-12-08T18:44:21.985Z,986.75
2022-12-08T18:45:22.597Z,986.74
2022-12-08T18:46:21.999Z,986.72
2022-12-08T18:47:21.531Z,986.71
2022-12-08T18:48:21.516Z,986.70
2022-12-08T18:49:21.511Z,986.71
2022-12-08T18:50:21.766Z,986.71
2022-12-08T18:51:21.489Z,986.72
2022-12-08T18:52:28.207Z,986.74
2022-12-08T18:53:21.566Z,986.74
2022-12-08T18:54:27.738Z,986.75
2022-12-08T18:55:21.524Z,986.76
2022-12-08T18:56:22.048Z,986.77
2022-12-08T18:57:21.495Z,986.77
2022-12-08T18:58:21.492Z,986.78
2022-12-08T18:59:21.460Z,986.78
2022-12-08T19:00:21.465Z,986.79
2022-12-08T19:01:21.491Z,986.79
2022-12-08T19:02:21.488Z,986.80
2022-12-08T19:03:21.417Z,986.80
2022-12-08T19:04:29.367Z,986.81
2022-12-08T19:05:21.827Z,986.82
2022-12-08T19:06:21.380Z,986.83
2022-12-08T19:07:21.378Z,986.84
2022-12-08T19:08:24.430Z,986.83
2022-12-08T19:09:21.358Z,986.83
2022-12-08T19:10:21.591Z,986.81
2022-12-08T19:11:21.415Z,986.80
2022-12-08T19:12:21.266Z,986.79
2022-12-08T19:13:21.340Z,986.80
2022-12-08T19:14:27.216Z,986.79
2022-12-08T19:15:21.333Z,986.80
2022-12-08T19:16:21.367Z,986.80
2022-12-08T19:17:21.795Z,986.80
2022-12-08T19:18:21.312Z,986.80
2022-12-08T19:19:21.276Z,986.80
2022-12-08T19:20:21.260Z,986.80
2022-12-08T19:21:21.609Z,986.80
2022-12-08T19:22:21.215Z,986.81
2022-12-08T19:23:21.206Z,986.80
2022-12-08T19:24:21.202Z,986.81
2022-12-08T19:25:21.227Z,986.82
2022-12-08T19:26:21.169Z,986.83
2022-12-08T19:27:21.163Z,986.85
2022-12-08T19:28:21.164Z,986.85
2022-12-08T19:29:21.203Z,986.87
2022-12-08T19:30:21.149Z,986.88
2022-12-08T19:31:21.224Z,986.89
2022-12-08T19:32:21.118Z,986.90
2022-12-08T19:33:21.120Z,986.90
2022-12-08T19:34:21.084Z,986.91
2022-12-08T19:35:21.086Z,986.91
2022-12-08T19:36:21.603Z,986.90
2022-12-08T19:37:21.078Z,986.90
2022-12-08T19:38:21.049Z,986.91
2022-12-08T19:39:21.036Z,986.90
2022-12-08T19:40:21.023Z,986.90
2022-12-08T19:41:21.584Z,986.90
2022-12-08T19:42:21.002Z,986.91
2022-12-08T19:43:20.994Z,986.91
2022-12-08T19:44:20.997Z,986.91
2022-12-08T19:45:21.083Z,986.91
2022-12-08T19:46:21.100Z,986.91
2022-12-08T19:47:21.094Z,986.91
2022-12-08T19:48:21.400Z,986.91
2022-12-08T19:49:20.932Z,986.90
2022-12-08T19:50:20.967Z,986.90
2022-12-08T19:51:20.913Z,986.91
2022-12-08T19:52:20.901Z,986.93
2022-12-08T19:53:20.895Z,986.94
2022-12-08T19:54:20.874Z,986.95
2022-12-08T19:55:20.907Z,986.95
2022-12-08T19:56:20.854Z,986.96
2022-12-08T19:57:20.846Z,986.96
2022-12-08T19:58:20.832Z,986.95
2022-12-08T19:59:20.830Z,986.95
2022-12-08T20:00:20.813Z,986.95
2022-12-08T20:01:20.898Z,986.93
2022-12-08T20:02:21.347Z,986.92
2022-12-08T20:03:20.845Z,986.91
2022-12-08T20:04:20.771Z,986.90
2022-12-08T20:05:20.782Z,986.90
2022-12-08T20:06:20.779Z,986.90
2022-12-08T20:07:20.704Z,986.91
2022-12-08T20:08:20.739Z,986.91
2022-12-08T20:09:20.692Z,986.92
2022-12-08T20:10:20.667Z,986.92
2022-12-08T20:11:20.739Z,986.92
2022-12-08T20:12:20.693Z,986.92
2022-12-08T20:13:20.712Z,986.93
2022-12-08T20:14:20.718Z,986.93
2022-12-08T20:15:20.661Z,986.93
2022-12-08T20:16:20.740Z,986.93
2022-12-08T20:17:20.648Z,986.94
2022-12-08T20:18:20.631Z,986.95
2022-12-08T20:19:20.620Z,986.95
2022-12-08T20:20:20.648Z,986.96
2022-12-08T20:21:20.603Z,986.96
2022-12-08T20:22:20.578Z,986.96
2022-12-08T20:23:20.579Z,986.96
2022-12-08T20:24:20.598Z,986.96
2022-12-08T20:25:20.561Z,986.97
2022-12-08T20:26:20.536Z,986.98
2022-12-08T20:27:20.531Z,986.98
2022-12-08T20:28:20.529Z,986.98
2022-12-08T20:29:20.549Z,986.98
2022-12-08T20:30:20.511Z,986.98
2022-12-08T20:31:20.969Z,986.96
2022-12-08T20:32:20.499Z,986.96
2022-12-08T20:33:20.470Z,986.96
2022-12-08T20:34:20.488Z,986.96
2022-12-08T20:35:20.445Z,986.97
2022-12-08T20:36:20.467Z,986.97
2022-12-08T20:37:21.011Z,986.97
2022-12-08T20:38:20.419Z,986.98
2022-12-08T20:39:20.405Z,986.99
2022-12-08T20:40:20.406Z,986.99
2022-12-08T20:41:20.397Z,986.99
2022-12-08T20:42:20.773Z,986.99
2022-12-08T20:43:20.363Z,986.99
2022-12-08T20:44:20.358Z,986.99
2022-12-08T20:45:20.340Z,987.00
2022-12-08T20:46:20.411Z,987.00
2022-12-08T20:47:20.833Z,987.01
2022-12-08T20:48:20.438Z,987.02
2022-12-08T20:49:20.722Z,987.02
2022-12-08T20:50:20.468Z,987.02
2022-12-08T20:51:20.291Z,987.02
2022-12-08T20:52:20.423Z,987.02
2022-12-08T20:53:20.365Z,987.03
2022-12-08T20:54:20.436Z,987.03
2022-12-08T20:55:20.345Z,987.02
2022-12-08T20:56:20.276Z,987.02
2022-12-08T20:57:20.225Z,987.03
2022-12-08T20:58:20.253Z,987.03
2022-12-08T20:59:20.628Z,987.04
2022-12-08T21:00:20.578Z,987.04
2022-12-08T21:01:20.428Z,987.05
2022-12-08T21:02:20.330Z,987.05
2022-12-08T21:03:20.435Z,987.05
2022-12-08T21:04:20.525Z,987.05
2022-12-08T21:05:21.040Z,987.05
2022-12-08T21:06:20.236Z,987.06
2022-12-08T21:07:20.244Z,987.04
2022-12-08T21:08:20.404Z,987.03
2022-12-08T21:09:20.259Z,987.03
2022-12-08T21:10:20.109Z,987.03
2022-12-08T21:11:20.070Z,987.03
2022-12-08T21:12:20.163Z,987.04
2022-12-08T21:13:20.067Z,987.04
2022-12-08T21:14:20.038Z,987.04
2022-12-08T21:15:20.149Z,987.04
2022-12-08T21:16:20.084Z,987.04
2022-12-08T21:17:20.650Z,987.04
2022-12-08T21:18:20.519Z,987.04
2022-12-08T21:19:20.275Z,987.05
2022-12-08T21:20:19.926Z,987.06
2022-12-08T21:21:20.034Z,987.07
2022-12-08T21:22:19.950Z,987.08
2022-12-08T21:23:20.469Z,987.09
2022-12-08T21:24:20.005Z,987.11
2022-12-08T21:25:20.428Z,987.12
2022-12-08T21:26:19.980Z,987.13
2022-12-08T21:27:19.926Z,987.13
2022-12-08T21:28:19.981Z,987.14
2022-12-08T21:29:19.960Z,987.15
2022-12-08T21:30:19.979Z,987.15
2022-12-08T21:31:20.315Z,987.15
2022-12-08T21:32:21.595Z,987.14
2022-12-08T21:33:20.362Z,987.14
2022-12-08T21:34:19.862Z,987.13
2022-12-08T21:35:20.755Z,987.14
2022-12-08T21:36:19.812Z,987.13
2022-12-08T21:37:19.821Z,987.13
2022-12-08T21:38:19.809Z,987.12
2022-12-08T21:39:20.118Z,987.12
2022-12-08T21:40:19.815Z,987.11
2022-12-08T21:41:19.815Z,987.11
2022-12-08T21:42:22.730Z,987.12
2022-12-08T21:43:19.795Z,987.13
2022-12-08T21:44:19.804Z,987.14
2022-12-08T21:45:19.714Z,987.15
2022-12-08T21:46:20.008Z,987.15
2022-12-08T21:47:19.790Z,987.15
2022-12-08T21:48:19.977Z,987.14
2022-12-08T21:49:19.872Z,987.13
2022-12-08T21:50:19.708Z,987.13
2022-12-08T21:51:20.272Z,987.13
2022-12-08T21:52:19.671Z,987.12
2022-12-08T21:53:19.647Z,987.12
2022-12-08T21:54:19.727Z,987.12
2022-12-08T21:55:19.928Z,987.12
2022-12-08T21:56:19.690Z,987.12
2022-12-08T21:57:19.676Z,987.13
2022-12-08T21:58:19.759Z,987.14
2022-12-08T21:59:19.830Z,987.16
2022-12-08T22:00:19.643Z,987.17
2022-12-08T22:01:19.708Z,987.18
2022-12-08T22:02:22.339Z,987.18
2022-12-08T22:03:19.714Z,987.19
2022-12-08T22:04:19.932Z,987.20
2022-12-08T22:05:19.636Z,987.20
2022-12-08T22:06:19.738Z,987.20
2022-12-08T22:07:19.631Z,987.21
2022-12-08T22:08:19.514Z,987.20
2022-12-08T22:09:19.638Z,987.19
2022-12-08T22:10:19.453Z,987.19
2022-12-08T22:11:19.669Z,987.19
2022-12-08T22:12:19.653Z,987.18
2022-12-08T22:13:19.904Z,987.17
2022-12-08T22:14:19.419Z,987.17
2022-12-08T22:15:19.543Z,987.17
2022-12-08T22:16:19.690Z,987.16
2022-12-08T22:17:20.172Z,987.16
2022-12-08T22:18:19.489Z,987.16
2022-12-08T22:19:19.349Z,987.15
2022-12-08T22:20:19.453Z,987.15
2022-12-08T22:21:19.580Z,987.15
2022-12-08T22:22:20.022Z,987.14
2022-12-08T22:23:19.524Z,987.12
2022-12-08T22:24:19.497Z,987.10
2022-12-08T22:25:19.588Z,987.09
2022-12-08T22:26:20.029Z,987.10
2022-12-08T22:27:19.566Z,987.10
2022-12-08T22:28:19.404Z,987.10
2022-12-08T22:29:19.554Z,987.10
2022-12-08T22:30:19.364Z,987.08
2022-12-08T22:31:19.996Z,987.07
2022-12-08T22:32:19.463Z,987.06
2022-12-08T22:33:19.450Z,987.05
2022-12-08T22:34:19.536Z,987.04
2022-12-08T22:35:19.312Z,987.04
2022-12-08T22:36:19.772Z,987.04
2022-12-08T22:37:19.474Z,987.04
2022-12-08T22:38:19.660Z,987.05
2022-12-08T22:39:19.266Z,987.05
2022-12-08T22:40:19.447Z,987.05
2022-12-08T22:41:19.299Z,987.05
2022-12-08T22:42:19.447Z,987.05
2022-12-08T22:43:19.230Z,987.06
2022-12-08T22:44:19.218Z,987.06
2022-12-08T22:45:19.205Z,987.07
2022-12-08T22:46:19.657Z,987.08
2022-12-08T22:47:19.273Z,987.08
2022-12-08T22:48:19.173Z,987.08
2022-12-08T22:49:19.165Z,987.09
2022-12-08T22:50:19.162Z,987.09
2022-12-08T22:51:19.744Z,987.09
2022-12-08T22:52:19.309Z,987.08
2022-12-08T22:53:19.117Z,987.08
2022-12-08T22:54:19.115Z,987.09
2022-12-08T22:55:19.192Z,987.09
2022-12-08T22:56:19.223Z,987.09
2022-12-08T22:57:18.984Z,987.09
2022-12-08T22:58:19.043Z,987.09
2022-12-08T22:59:18.929Z,987.09
2022-12-08T23:00:18.928Z,987.10
2022-12-08T23:01:19.060Z,987.10
2022-12-08T23:02:19.297Z,987.10
2022-12-08T23:03:19.020Z,987.10
2022-12-08T23:04:19.287Z,987.10
2022-12-08T23:05:19.018Z,987.10
2022-12-08T23:06:19.178Z,987.11
2022-12-08T23:07:19.034Z,987.11
2022-12-08T23:08:18.945Z,987.11
2022-12-08T23:09:18.903Z,987.12
2022-12-08T23:10:18.824Z,987.11
2022-12-08T23:11:18.800Z,987.11
2022-12-08T23:12:18.832Z,987.11
2022-12-08T23:13:18.783Z,987.11
2022-12-08T23:14:18.777Z,987.10
2022-12-08T23:15:18.760Z,987.09
2022-12-08T23:16:19.071Z,987.07
2022-12-08T23:17:19.434Z,987.05
2022-12-08T23:18:18.732Z,987.03
2022-12-08T23:19:18.766Z,987.01
2022-12-08T23:20:18.719Z,986.99
2022-12-08T23:21:18.920Z,986.97
2022-12-08T23:22:18.724Z,986.96
2022-12-08T23:23:18.674Z,986.95
2022-12-08T23:24:18.674Z,986.94
2022-12-08T23:25:18.710Z,986.93
2022-12-08T23:26:18.648Z,986.93
2022-12-08T23:27:19.161Z,986.94
2022-12-08T23:28:18.638Z,986.94
2022-12-08T23:29:18.613Z,986.94
2022-12-08T23:30:18.620Z,986.94
2022-12-08T23:31:18.911Z,986.94
2022-12-08T23:32:19.275Z,986.93
2022-12-08T23:33:18.894Z,986.94
2022-12-08T23:34:18.596Z,986.93
2022-12-08T23:35:18.773Z,986.93
2022-12-08T23:36:18.548Z,986.93
2022-12-08T23:37:18.938Z,986.92
2022-12-08T23:38:18.744Z,986.92
2022-12-08T23:39:18.611Z,986.91
2022-12-08T23:40:18.725Z,986.92
2022-12-08T23:41:18.948Z,986.91
2022-12-08T23:42:18.988Z,986.92
2022-12-08T23:43:18.840Z,986.92
2022-12-08T23:44:18.822Z,986.93
2022-12-08T23:45:18.443Z,986.93
2022-12-08T23:46:18.509Z,986.94
2022-12-08T23:47:18.602Z,986.95
2022-12-08T23:48:18.539Z,986.96
2022-12-08T23:49:18.410Z,986.96
2022-12-08T23:50:18.673Z,986.96
2022-12-08T23:51:18.477Z,986.96
2022-12-08T23:52:18.776Z,986.94
2022-12-08T23:53:18.574Z,986.93
2022-12-08T23:54:18.370Z,986.92
2022-12-08T23:55:18.391Z,986.92
2022-12-08T23:56:18.361Z,986.92
2022-12-08T23:57:18.328Z,986.92
2022-12-08T23:58:18.562Z,986.92
2022-12-08T23:59:18.319Z,986.92
